Rupike, Zimbabwe

7:53 AM CAT on August 24, 2016 (GMT +0200)
Masvingo | | Change Station

Elev 3593 ft 20.06 °S, 30.86 °E | Updated 1 hour ago

Mostly Cloudy
Mostly Cloudy
54 °F
Feels Like 54 °F
N
12
Wind Variable Wind from SSE

Today
High -- | Low -- °F
--% Chance of Precip.
Yesterday
High -- | Low -- °F
Precip. -- in
Pressure 30.42 in
Visibility 6.2 miles
Clouds Mostly Cloudy 1000 ft
Dew Point 46 °F
Humidity 77%
Rainfall 0.00 in
Snow Depth Not available.
6:11 AM 5:45 PM
Waning Gibbous, 60% visible
METAR FVMV 240400Z 15010KT 9999 BKN010 12/08 Q1030
Pressure 30.42 in
Visibility 6.2 miles
Clouds Mostly Cloudy 1000 ft
Dew Point 46 °F
Humidity 77%
Rainfall 0.00 in
Snow Depth Not available.
6:11 AM 5:45 PM
Waning Gibbous, 60% visible
METAR FVMV 240400Z 15010KT 9999 BKN010 12/08 Q1030

10-Day Weather Forecast

No radar image for this location.
×

Almanac

Astronomy

Aug. 24, 2016 Rise Set
Actual Time
Civil Twilight
Nautical Twilight
Astronomical Twilight
Moon
Length of Visible Light
Length of Day
Tomorrow will be .
, % of the Moon is Illuminated

Today's Extremes

Country Highs Country Lows

Community

WunderPhotos

Upload Photos

1,934,554 photos uploaded!

WunderBlog® & News

Nearby

Air Quality

  Air Quality AQ Index Pollutant
Not available.

Snow Depth

Station Depth Elevation

Earthquake Activity

City Distance Mag. Time & Date
Minimum magnitude displayed is 2.5.

Coastal Water Temperatures

Place Temperature

Stations

Nearby Weather Stations

Station Location Temp. Windchill Dew Point Humidity Wind Precip. Elev Updated Type